This is the latest recevied weather packets stored in our database for station/object OM7IT-WX. If no packets are shown the sender has not sent any weather packets the latest 1 day(s).
| Time | Temp. | Humidity | Pressure | Rain* | Wind** | Luminosity | Snow |
|---|---|---|---|---|---|---|---|
| 1778046004 | 13.89° C | 46% | 967 hPa | - | - | - | - |
| 1778045108 | 11.67° C | 50% | 967 hPa | - | - | - | - |
| 1778044807 | 11.11° C | 51% | 967 hPa | - | - | - | - |
| 1778044206 | 10.56° C | 52% | 967 hPa | - | - | - | - |
| 1778043906 | 10.56° C | 52% | 967 hPa | - | - | - | - |
| 1778043609 | 10.56° C | 53% | 967 hPa | - | - | - | - |
| 1778041808 | 9.44° C | 56% | 967 hPa | - | - | - | - |
| 1778041206 | 8.89° C | 56% | 967 hPa | - | - | - | - |
| 1778040605 | 8.89° C | 56% | 967 hPa | - | - | - | - |
| 1778040008 | 8.33° C | 56% | 967 hPa | - | - | - | - |
| 1778039403 | 8.89° C | 56% | 967 hPa | - | - | - | - |
| 1778039107 | 8.89° C | 55% | 967 hPa | - | - | - | - |
| 1778038206 | 8.89° C | 55% | 967 hPa | - | - | - | - |
| 1778037905 | 8.89° C | 55% | 967 hPa | - | - | - | - |
| 1778037605 | 8.89° C | 55% | 967 hPa | - | - | - | - |
| 1778036703 | 8.89° C | 55% | 967 hPa | - | - | - | - |
| 1778036107 | 8.89° C | 55% | 967 hPa | - | - | - | - |
| 1778035506 | 8.89° C | 54% | 967 hPa | - | - | - | - |
| 1778034905 | 9.44° C | 52% | 967 hPa | - | - | - | - |
| 1778034304 | 9.44° C | 52% | 967 hPa | - | - | - | - |
| 1778033703 | 10° C | 51% | 967 hPa | - | - | - | - |
| 1778033107 | 10° C | 50% | 967 hPa | - | - | - | - |
| 1778032506 | 10° C | 49% | 967 hPa | - | - | - | - |
| 1778031905 | 10.56° C | 48% | 967 hPa | - | - | - | - |
| 1778030703 | 11.11° C | 47% | 967 hPa | - | - | - | - |
* Rain since midnight (hover to see other rain measurements)
** Current wind speed in m/s (hover to see current wind gust speed)